Time;durP1;ratioP1;P1;durP2;ratioP2;P2;SDS_P1;SDS_P2;PMS_P1;PMS_P2;Temp;Humidity;BMP_temperature;BMP_pressure;BME280_temperature;BME280_humidity;BME280_pressure;Samples;Min_cycle;Max_cycle;Signal;HPM_P1;HPM_P2
2021/03/28 00:01:02;;;;;;;2.50;1.20;;;;;;;-1.74;89.52;94217.72;2115003;27;20833;-82
2021/03/28 00:02:11;;;;;;;4.03;1.17;;;;;;;-1.57;89.79;94222.94;2115736;27;20461;-81
2021/03/28 00:03:24;;;;;;;3.17;1.00;;;;;;;-1.61;90.04;94216.78;2112764;27;20532;-82
2021/03/28 00:04:26;;;;;;;2.40;1.20;;;;;;;-1.61;89.39;94229.88;2107010;28;20481;-81
2021/03/28 00:05:30;;;;;;;2.67;1.10;;;;;;;-1.62;89.61;94225.72;2107676;28;20545;-81
2021/03/28 00:06:35;;;;;;;2.33;1.23;;;;;;;-1.65;90.10;94217.72;2115062;27;20875;-82
2021/03/28 00:07:59;;;;;;;2.20;1.00;;;;;;;-1.67;90.93;94214.63;2107925;28;20437;-82
2021/03/28 00:09:09;;;;;;;1.60;1.05;;;;;;;-1.63;90.97;94213.69;2110675;27;20539;-81
2021/03/28 00:10:26;;;;;;;4.03;1.02;;;;;;;-1.60;90.06;94220.16;2104804;27;20510;-82
2021/03/28 00:11:26;;;;;;;4.90;1.08;;;;;;;-1.70;89.96;94215.25;2116044;27;20035;-81
2021/03/28 00:12:32;;;;;;;3.75;1.20;;;;;;;-1.70;90.06;94218.63;2115992;27;20839;-82
2021/03/28 00:13:46;;;;;;;2.92;1.30;;;;;;;-1.70;90.46;94217.88;2116091;27;20506;-82
2021/03/28 00:15:05;;;;;;;3.22;1.05;;;;;;;-1.78;89.76;94219.41;2105773;28;20466;-80
2021/03/28 00:16:06;;;;;;;2.20;1.15;;;;;;;-1.82;90.45;94223.72;2109549;28;20442;-82
2021/03/28 00:17:19;;;;;;;3.13;1.15;;;;;;;-1.79;89.55;94215.25;2111574;27;20968;-82
2021/03/28 00:18:30;;;;;;;1.50;1.08;;;;;;;-1.79;90.28;94218.66;2113077;27;20429;-81
2021/03/28 00:19:33;;;;;;;4.97;1.23;;;;;;;-1.77;89.52;94229.56;2109271;27;20472;-83
2021/03/28 00:20:37;;;;;;;4.43;1.15;;;;;;;-1.82;90.21;94221.13;2107278;28;20450;-82
2021/03/28 00:21:40;;;;;;;4.93;1.05;;;;;;;-1.84;90.71;94223.28;2112325;27;20456;-81
2021/03/28 00:22:53;;;;;;;3.15;1.00;;;;;;;-1.87;91.23;94224.66;2115775;27;20457;-82
2021/03/28 00:24:17;;;;;;;5.25;1.67;;;;;;;-1.88;91.09;94220.50;2107040;27;20468;-80
2021/03/28 00:25:32;;;;;;;4.13;1.10;;;;;;;-1.80;90.52;94218.94;2112873;27;20452;-80
2021/03/28 00:26:37;;;;;;;3.35;1.15;;;;;;;-1.84;89.84;94218.03;2105778;28;20457;-81
2021/03/28 00:27:47;;;;;;;4.47;1.35;;;;;;;-1.88;89.64;94217.13;2103956;28;20487;-81
2021/03/28 00:29:04;;;;;;;4.10;1.17;;;;;;;-1.90;90.07;94214.03;2108284;28;21043;-83
2021/03/28 00:30:36;;;;;;;2.00;0.95;;;;;;;-2.03;90.93;94218.34;2109642;28;20492;-82
2021/03/28 00:32:06;;;;;;;2.90;1.17;;;;;;;-1.97;90.65;94230.22;2101147;28;20499;-82
2021/03/28 00:33:06;;;;;;;1.63;1.00;;;;;;;-2.00;91.43;94219.59;2111030;28;20534;-82
2021/03/28 00:34:24;;;;;;;3.88;1.10;;;;;;;-2.00;90.27;94224.81;2107367;28;20059;-83
2021/03/28 00:35:32;;;;;;;6.57;1.13;;;;;;;-1.96;90.29;94225.75;2107728;28;21070;-81
2021/03/28 00:36:38;;;;;;;1.45;0.90;;;;;;;-1.95;89.84;94211.56;2107328;28;20460;-82
2021/03/28 00:37:42;;;;;;;2.50;0.85;;;;;;;-2.00;88.97;94219.59;2103941;27;20547;-82
2021/03/28 00:38:51;;;;;;;1.60;0.80;;;;;;;-1.99;88.94;94215.88;2115610;27;20476;-82
2021/03/28 00:40:01;;;;;;;2.28;1.20;;;;;;;-2.07;89.87;94214.81;2107338;28;20469;-81
2021/03/28 00:41:09;;;;;;;3.03;1.35;;;;;;;-2.06;89.32;94213.75;2101127;28;20549;-82
2021/03/28 00:42:24;;;;;;;3.90;1.33;;;;;;;-2.07;89.72;94217.41;2112907;27;20138;-81
2021/03/28 00:43:26;;;;;;;3.78;1.15;;;;;;;-2.08;90.88;94208.78;2121720;27;20424;-82
2021/03/28 00:44:29;;;;;;;2.40;1.00;;;;;;;-2.06;90.18;94211.88;2114989;28;20958;-82
2021/03/28 00:45:45;;;;;;;4.47;1.38;;;;;;;-2.03;90.51;94213.88;2100289;28;20455;-81
2021/03/28 00:46:57;;;;;;;4.22;1.10;;;;;;;-2.04;91.25;94203.72;2109729;27;20472;-82
2021/03/28 00:48:09;;;;;;;3.92;1.25;;;;;;;-2.10;91.77;94205.72;2124924;27;20437;-82
2021/03/28 00:49:30;;;;;;;4.20;1.10;;;;;;;-2.09;91.64;94209.88;2114323;27;20425;-82
2021/03/28 00:51:08;;;;;;;3.78;1.10;;;;;;;-2.19;91.25;94210.19;2105383;28;20539;-82
2021/03/28 00:52:14;;;;;;;3.35;1.20;;;;;;;-2.18;91.58;94214.34;2119654;27;20440;-82
2021/03/28 00:53:44;;;;;;;5.40;1.40;;;;;;;-2.13;92.35;94213.44;2125297;27;20518;-82
2021/03/28 00:54:52;;;;;;;5.50;1.20;;;;;;;-2.12;92.20;94215.72;2113585;27;20856;-81
2021/03/28 00:55:59;;;;;;;3.40;1.25;;;;;;;-2.10;91.54;94210.97;2109870;27;20031;-80
2021/03/28 00:57:14;;;;;;;4.53;1.05;;;;;;;-2.08;90.88;94213.25;2117579;27;20972;-81
2021/03/28 00:58:20;;;;;;;1.95;1.05;;;;;;;-2.08;91.31;94208.78;2114686;27;20453;-86
2021/03/28 00:59:22;;;;;;;1.52;1.13;;;;;;;-2.10;91.16;94212.81;2109536;28;20549;-81
2021/03/28 01:01:10;;;;;;;4.70;1.15;;;;;;;-2.08;90.98;94211.41;2109429;28;20456;-81
2021/03/28 01:02:11;;;;;;;3.15;1.15;;;;;;;-2.05;90.81;94208.19;2106767;27;20456;-82
2021/03/28 01:03:32;;;;;;;2.17;1.30;;;;;;;-2.14;90.67;94206.66;2117314;27;20457;-80
2021/03/28 01:04:47;;;;;;;2.35;1.40;;;;;;;-2.19;91.74;94207.56;2103162;28;20428;-82
2021/03/28 01:05:51;;;;;;;3.65;1.23;;;;;;;-2.20;90.85;94207.88;2108951;27;20560;-82
2021/03/28 01:06:56;;;;;;;2.47;1.00;;;;;;;-2.16;90.27;94203.56;2118055;27;20433;-81
2021/03/28 01:08:04;;;;;;;1.52;0.95;;;;;;;-2.23;90.10;94204.03;2118383;27;20499;-82
2021/03/28 01:09:39;;;;;;;2.28;1.02;;;;;;;-2.19;89.99;94202.34;2108969;28;20495;-81
2021/03/28 01:10:45;;;;;;;2.90;1.00;;;;;;;-2.16;89.87;94193.84;2109643;27;20489;-82
2021/03/28 01:11:54;;;;;;;3.45;1.20;;;;;;;-2.16;90.25;94196.47;2114718;27;20578;-81
2021/03/28 01:12:54;;;;;;;3.80;1.10;;;;;;;-2.23;90.42;94200.66;2116287;27;20510;-81
2021/03/28 01:14:16;;;;;;;5.53;1.23;;;;;;;-2.23;90.36;94198.78;2116048;27;20437;-81
2021/03/28 01:15:42;;;;;;;4.18;1.10;;;;;;;-2.21;90.56;94199.25;2114715;27;20109;-81
2021/03/28 01:17:11;;;;;;;3.13;1.20;;;;;;;-2.22;91.40;94189.84;2112882;27;20493;-81
2021/03/28 01:18:37;;;;;;;3.28;1.55;;;;;;;-2.20;90.14;94192.16;2109478;27;20861;-82
2021/03/28 01:19:58;;;;;;;4.57;1.38;;;;;;;-2.26;90.92;94185.53;2107123;28;20041;-81
2021/03/28 01:21:09;;;;;;;4.20;1.13;;;;;;;-2.29;91.80;94187.69;2096243;28;20467;-81
2021/03/28 01:22:31;;;;;;;5.50;1.20;;;;;;;-2.42;92.26;94190.44;2106456;27;20504;-81
2021/03/28 01:23:43;;;;;;;2.65;1.13;;;;;;;-2.48;92.06;94189.06;2119822;27;20449;-81
2021/03/28 01:24:58;;;;;;;4.65;1.15;;;;;;;-2.41;90.65;94186.78;2113900;27;20441;-82
2021/03/28 01:26:16;;;;;;;3.38;1.30;;;;;;;-2.39;91.22;94188.00;2118078;27;20453;-82
2021/03/28 01:27:31;;;;;;;3.42;1.70;;;;;;;-2.38;90.61;94183.53;2114512;27;20428;-81
2021/03/28 01:28:56;;;;;;;2.67;1.50;;;;;;;-2.42;90.75;94187.84;2117625;27;20447;-82
2021/03/28 01:30:16;;;;;;;3.08;1.38;;;;;;;-2.40;90.86;94181.22;2116127;27;20471;-81
2021/03/28 01:31:34;;;;;;;2.70;1.58;;;;;;;-2.44;90.10;94179.53;2109471;27;20434;-81
2021/03/28 01:32:43;;;;;;;5.00;1.65;;;;;;;-2.41;90.91;94177.06;2109013;28;20516;-80
2021/03/28 01:34:08;;;;;;;3.28;1.42;;;;;;;-2.43;91.30;94179.22;2109421;28;20516;-81
2021/03/28 01:35:12;;;;;;;3.17;1.60;;;;;;;-2.46;92.09;94186.91;2113195;27;20499;-82
2021/03/28 01:36:40;;;;;;;3.00;1.38;;;;;;;-2.44;92.09;94182.91;2117277;27;20969;-81
2021/03/28 01:37:50;;;;;;;4.53;1.20;;;;;;;-2.49;91.79;94190.91;2114027;27;20484;-82
2021/03/28 01:39:06;;;;;;;4.28;1.45;;;;;;;-2.48;91.87;94187.22;2117569;27;20440;-82
2021/03/28 01:40:47;;;;;;;3.45;1.20;;;;;;;-2.54;90.70;94180.59;2108929;28;20522;-81
2021/03/28 01:41:58;;;;;;;3.92;1.20;;;;;;;-2.56;91.04;94177.50;2109332;27;20440;-80
2021/03/28 01:43:24;;;;;;;1.70;1.02;;;;;;;-2.59;91.46;94184.13;2110036;28;20461;-80
2021/03/28 01:44:39;;;;;;;4.32;1.05;;;;;;;-2.55;91.47;94179.03;2115834;27;20417;-81
2021/03/28 01:45:57;;;;;;;2.15;1.00;;;;;;;-2.48;91.16;94179.38;2105052;28;20586;-83
2021/03/28 01:47:10;;;;;;;2.05;0.98;;;;;;;-2.43;90.96;94186.28;2105011;28;20455;-81
2021/03/28 01:48:35;;;;;;;4.53;1.27;;;;;;;-2.42;90.98;94183.38;2113857;27;20429;-82
2021/03/28 01:49:57;;;;;;;3.75;1.10;;;;;;;-2.55;90.62;94185.06;2117402;27;20452;-81
2021/03/28 01:51:16;;;;;;;4.90;1.42;;;;;;;-2.58;90.58;94187.53;2115539;27;20823;-81
2021/03/28 01:52:25;;;;;;;3.35;1.25;;;;;;;-2.63;91.13;94182.44;2111985;27;20445;-80
2021/03/28 01:53:43;;;;;;;2.97;1.30;;;;;;;-2.60;91.88;94187.81;2117648;27;20526;-81
2021/03/28 01:54:55;;;;;;;5.53;1.23;;;;;;;-2.58;91.69;94182.28;2107252;27;20520;-82
2021/03/28 01:55:58;;;;;;;1.95;1.02;;;;;;;-2.56;91.25;94180.13;2109720;28;20442;-80
2021/03/28 01:57:10;;;;;;;5.20;1.40;;;;;;;-2.57;91.10;94178.59;2108817;28;20544;-81
2021/03/28 01:58:15;;;;;;;3.10;1.30;;;;;;;-2.58;91.25;94180.44;2113920;27;20454;-81
2021/03/28 01:59:37;;;;;;;5.15;1.30;;;;;;;-2.65;91.33;94187.97;2108464;28;20541;-81
2021/03/28 02:01:01;;;;;;;2.42;1.10;;;;;;;-2.78;90.92;94181.78;2106064;28;20453;-81
2021/03/28 02:04:20;;;;;;;4.05;1.40;;;;;;;-2.81;91.02;94185.03;2148230;27;20113;-80
2021/03/28 02:05:33;;;;;;;5.13;1.20;;;;;;;-2.80;91.09;94186.56;2130148;27;20558;-79
2021/03/28 02:06:45;;;;;;;2.97;1.30;;;;;;;-2.86;90.83;94189.59;2114641;28;20546;-80
2021/03/28 02:08:14;;;;;;;2.85;1.02;;;;;;;-2.81;90.85;94189.47;2099333;28;20443;-80
2021/03/28 02:09:40;;;;;;;4.68;1.63;;;;;;;-2.82;90.91;94187.94;2112111;28;20448;-80
2021/03/28 02:10:40;;;;;;;3.15;1.20;;;;;;;-2.81;91.25;94186.84;2108057;28;20028;-80
2021/03/28 02:11:59;;;;;;;3.92;1.33;;;;;;;-2.78;91.29;94188.88;2104734;28;20439;-80
2021/03/28 02:13:12;;;;;;;4.38;1.33;;;;;;;-2.72;92.01;94187.66;2108773;27;20035;-80
2021/03/28 02:14:31;;;;;;;3.65;1.40;;;;;;;-2.69;92.05;94189.66;2116606;27;20533;-80
2021/03/28 02:15:37;;;;;;;7.78;1.70;;;;;;;-2.70;92.12;94187.34;2124052;27;20437;-80
2021/03/28 02:16:59;;;;;;;2.60;1.23;;;;;;;-2.80;92.40;94188.41;2114513;27;20441;-80
2021/03/28 02:18:15;;;;;;;2.70;1.48;;;;;;;-2.79;91.90;94189.94;2110618;28;20425;-80
2021/03/28 02:19:20;;;;;;;7.70;1.35;;;;;;;-2.83;91.17;94195.00;2111160;27;20438;-80
2021/03/28 02:20:23;;;;;;;2.28;1.20;;;;;;;-2.89;91.40;94187.63;2122528;27;21000;-80
2021/03/28 02:21:23;;;;;;;2.10;1.00;;;;;;;-2.85;90.83;94196.41;2121703;27;20844;-80
2021/03/28 02:23:11;;;;;;;2.65;1.15;;;;;;;-2.82;90.56;94186.06;2121511;28;20437;-80
2021/03/28 02:24:56;;;;;;;2.58;1.15;;;;;;;-2.78;89.86;94181.78;2085595;28;20069;-79
2021/03/28 02:26:06;;;;;;;1.52;1.10;;;;;;;-2.73;90.18;94183.47;2118395;27;20441;-79
2021/03/28 02:27:42;;;;;;;;;;;;;;;-2.92;90.54;94185.59;2114880;28;20417;-79
2021/03/28 02:29:10;;;;;;;2.85;0.93;;;;;;;-2.93;91.68;94191.91;2083926;28;19960;-80
2021/03/28 02:30:31;;;;;;;2.35;1.10;;;;;;;-2.84;91.55;94188.25;2091233;28;20455;-79
2021/03/28 02:31:34;;;;;;;6.70;1.40;;;;;;;-2.83;91.63;94175.94;2107883;28;20555;-80
2021/03/28 02:32:46;;;;;;;3.00;1.15;;;;;;;-2.81;91.48;94171.94;2122152;27;20444;-80
2021/03/28 02:34:00;;;;;;;3.53;1.40;;;;;;;-2.79;90.96;94174.25;2121459;28;20469;-81
2021/03/28 02:35:37;;;;;;;4.50;1.35;;;;;;;-2.84;91.49;94182.25;2123217;27;20586;-81
2021/03/28 02:36:42;;;;;;;1.95;1.13;;;;;;;-2.81;92.46;94179.78;2117899;28;20819;-80
2021/03/28 02:38:10;;;;;;;3.72;1.00;;;;;;;-2.81;92.02;94176.38;2097066;28;20874;-80
2021/03/28 02:39:28;;;;;;;1.65;1.25;;;;;;;-2.90;92.55;94171.13;2112397;27;20444;-80
2021/03/28 02:40:34;;;;;;;3.10;1.20;;;;;;;-2.91;92.61;94176.69;2121353;28;20433;-80
2021/03/28 02:42:02;;;;;;;4.18;1.52;;;;;;;-2.88;92.29;94178.69;2112706;28;20532;-80
2021/03/28 02:43:37;;;;;;;4.70;1.30;;;;;;;-2.89;92.42;94179.78;2112006;28;20433;-80
2021/03/28 02:44:56;;;;;;;4.20;1.30;;;;;;;-2.92;91.62;94172.53;2075470;28;21047;-80
2021/03/28 02:46:22;;;;;;;3.85;1.30;;;;;;;-2.93;92.14;94178.84;2089343;28;20476;-80
2021/03/28 02:47:59;;;;;;;4.07;1.42;;;;;;;-2.89;92.20;94175.31;2116219;28;20441;-80
2021/03/28 02:49:21;;;;;;;2.80;1.38;;;;;;;-2.84;92.59;94174.41;2112411;28;20499;-80
2021/03/28 02:50:30;;;;;;;6.35;1.55;;;;;;;-2.89;93.00;94172.69;2107257;28;21340;-79
2021/03/28 02:51:39;;;;;;;4.07;1.30;;;;;;;-2.96;92.39;94176.81;2106540;28;20477;-80
2021/03/28 02:53:16;;;;;;;6.45;1.40;;;;;;;-3.00;92.00;94181.13;2113644;28;20572;-80
2021/03/28 02:54:36;;;;;;;2.85;1.17;;;;;;;-2.97;91.28;94178.66;2112774;28;20958;-80
2021/03/28 02:55:54;;;;;;;3.78;1.20;;;;;;;-2.99;90.70;94180.81;2108577;28;20454;-80
2021/03/28 02:57:07;;;;;;;4.15;1.23;;;;;;;-3.00;90.10;94178.50;2115254;28;20114;-80
2021/03/28 02:58:07;;;;;;;3.85;1.23;;;;;;;-2.92;90.39;94172.53;2105889;28;20453;-80
2021/03/28 02:59:26;;;;;;;3.55;1.40;;;;;;;-2.93;90.93;94177.00;2091678;28;21094;-79
2021/03/28 03:01:06;;;;;;;3.65;1.45;;;;;;;-3.08;91.79;94180.00;2103383;28;20037;-79
2021/03/28 03:02:33;;;;;;;1.95;1.25;;;;;;;-2.99;92.07;94175.56;2112730;28;20449;-80
2021/03/28 03:03:33;;;;;;;3.67;1.45;;;;;;;-2.98;92.01;94173.75;2102799;28;20044;-79
2021/03/28 03:04:45;;;;;;;4.93;1.10;;;;;;;-2.97;91.91;94168.22;2095778;28;20757;-79
2021/03/28 03:06:00;;;;;;;4.70;1.40;;;;;;;-3.04;92.81;94173.88;2104223;28;20032;-80
2021/03/28 03:07:28;;;;;;;3.88;1.42;;;;;;;-3.03;93.32;94174.63;2114651;28;20441;-80
2021/03/28 03:08:42;;;;;;;3.67;1.20;;;;;;;-3.06;93.08;94177.88;2112873;28;20449;-80
2021/03/28 03:10:27;;;;;;;2.70;1.30;;;;;;;-3.05;92.42;94190.63;2105644;28;20434;-80
2021/03/28 03:11:57;;;;;;;5.05;1.55;;;;;;;-3.08;93.01;94183.41;2110312;28;20533;-79
2021/03/28 03:13:15;;;;;;;2.20;1.17;;;;;;;-3.10;92.60;94190.78;2103998;28;20441;-79
2021/03/28 03:14:31;;;;;;;5.07;1.50;;;;;;;-3.14;92.29;94191.69;2116305;27;20076;-80
2021/03/28 03:15:43;;;;;;;2.38;1.27;;;;;;;-3.19;92.05;94189.22;2108828;28;20445;-79
2021/03/28 03:17:02;;;;;;;2.45;1.10;;;;;;;-3.15;93.09;94180.47;2100058;28;20435;-79
2021/03/28 03:18:21;;;;;;;2.22;1.35;;;;;;;-3.14;92.99;94179.38;2107057;28;20438;-80
2021/03/28 03:19:52;;;;;;;1.63;1.13;;;;;;;-3.10;92.55;94180.31;2103329;28;20451;-80
2021/03/28 03:21:11;;;;;;;4.13;1.30;;;;;;;-3.09;91.61;94178.47;2111070;28;20429;-80
2021/03/28 03:22:17;;;;;;;3.78;1.20;;;;;;;-3.08;91.46;94185.25;2115370;28;20462;-79
2021/03/28 03:23:38;;;;;;;3.63;1.30;;;;;;;-3.17;92.32;94177.38;2115318;28;20524;-80
2021/03/28 03:25:00;;;;;;;4.07;1.52;;;;;;;-3.19;91.34;94181.38;2115317;28;20831;-80
2021/03/28 03:26:28;;;;;;;3.83;1.52;;;;;;;-3.22;90.57;94185.34;2109364;28;20438;-80
2021/03/28 03:27:43;;;;;;;3.47;1.10;;;;;;;-3.19;90.72;94179.53;2102111;28;20450;-80
2021/03/28 03:29:04;;;;;;;3.17;1.42;;;;;;;-3.19;91.37;94181.38;2092095;28;21195;-80
2021/03/28 03:30:22;;;;;;;4.90;1.42;;;;;;;-3.25;92.30;94178.09;2087487;28;20873;-80
2021/03/28 03:31:31;;;;;;;3.10;2.20;;;;;;;-3.20;90.98;94179.84;2101058;28;20439;-79
2021/03/28 03:32:43;;;;;;;3.65;1.55;;;;;;;-3.19;91.72;94178.75;2108056;28;20448;-80
2021/03/28 03:34:08;;;;;;;3.75;1.50;;;;;;;-3.17;92.17;94190.44;2091609;28;20475;-79
2021/03/28 03:35:24;;;;;;;3.95;1.27;;;;;;;-3.19;92.25;94184.75;2088379;28;20850;-80
2021/03/28 03:36:46;;;;;;;3.00;1.30;;;;;;;-3.16;92.91;94184.16;2094281;28;20456;-79
2021/03/28 03:38:24;;;;;;;1.63;0.98;;;;;;;-3.12;93.43;94179.84;2093073;28;20522;-80
2021/03/28 03:40:01;;;;;;;2.55;1.10;;;;;;;-3.14;92.35;94176.78;2094929;28;20439;-80
2021/03/28 03:41:20;;;;;;;3.72;1.27;;;;;;;-3.26;92.91;94181.78;2091790;28;20430;-79
2021/03/28 03:42:42;;;;;;;3.88;1.35;;;;;;;-3.28;92.60;94188.41;2095020;28;20515;-80
2021/03/28 03:44:18;;;;;;;5.13;1.25;;;;;;;-3.31;92.38;94184.56;2101298;28;20997;-79
2021/03/28 03:45:36;;;;;;;5.05;1.52;;;;;;;-3.27;93.78;94185.50;2103057;28;20450;-80
2021/03/28 03:46:46;;;;;;;4.28;1.33;;;;;;;-3.21;92.88;94186.88;2109032;28;20448;-80
2021/03/28 03:48:04;;;;;;;5.88;1.73;;;;;;;-3.16;92.65;94180.75;2102616;28;20788;-80
2021/03/28 03:49:24;;;;;;;3.40;1.58;;;;;;;-3.13;92.39;94188.00;2103478;28;20440;-79
2021/03/28 03:50:49;;;;;;;4.28;1.33;;;;;;;-3.16;92.30;94191.22;2098385;28;20458;-79
2021/03/28 03:52:04;;;;;;;4.22;1.20;;;;;;;-3.17;92.77;94181.84;2098051;28;20082;-79
2021/03/28 03:53:25;;;;;;;2.65;1.10;;;;;;;-3.15;92.88;94184.94;2098346;28;20553;-80
2021/03/28 03:54:32;;;;;;;2.88;1.25;;;;;;;-3.17;93.37;94181.84;2095583;28;20525;-78
2021/03/28 03:55:38;;;;;;;3.42;1.20;;;;;;;-3.21;93.75;94186.88;2099648;28;20419;-80
2021/03/28 03:57:01;;;;;;;4.75;1.35;;;;;;;-3.25;93.34;94190.41;2107337;28;20532;-79
2021/03/28 03:58:16;;;;;;;5.30;1.35;;;;;;;-3.24;94.19;94184.91;2101460;28;20513;-79
2021/03/28 03:59:38;;;;;;;2.95;1.25;;;;;;;-3.22;93.52;94184.59;2102283;28;21067;-79
2021/03/28 04:00:55;;;;;;;3.78;1.52;;;;;;;-3.23;92.66;94185.66;2109551;28;20484;-80
2021/03/28 04:02:17;;;;;;;3.30;1.92;;;;;;;-3.21;92.64;94189.50;2098298;28;20445;-80
2021/03/28 04:03:20;;;;;;;1.40;0.95;;;;;;;-3.25;92.16;94182.56;2095116;28;20882;-80
2021/03/28 04:04:40;;;;;;;5.55;1.42;;;;;;;-3.26;91.28;94191.50;2082209;28;20447;-79
2021/03/28 04:06:15;;;;;;;4.37;1.40;;;;;;;-3.35;91.83;94186.22;2086805;28;20428;-79
2021/03/28 04:07:36;;;;;;;3.35;1.20;;;;;;;-3.27;91.93;94190.72;2102744;28;20442;-80
2021/03/28 04:09:12;;;;;;;2.35;1.17;;;;;;;-3.30;92.33;94191.31;2098079;28;20967;-80
2021/03/28 04:10:33;;;;;;;1.95;1.38;;;;;;;-3.35;93.06;94191.44;2091177;28;20454;-80
2021/03/28 04:11:46;;;;;;;1.42;1.00;;;;;;;-3.39;92.77;94187.91;2095620;28;20770;-80
2021/03/28 04:13:21;;;;;;;4.60;1.35;;;;;;;-3.38;93.51;94185.00;2100760;28;20423;-80
2021/03/28 04:14:52;;;;;;;3.55;1.38;;;;;;;-3.34;93.15;94187.75;2089515;28;20542;-79
2021/03/28 04:16:26;;;;;;;2.97;1.15;;;;;;;-3.29;93.16;94187.66;2093809;28;20492;-79
2021/03/28 04:17:39;;;;;;;4.80;1.20;;;;;;;-3.30;92.68;94193.94;2093296;28;20446;-80
2021/03/28 04:19:01;;;;;;;2.78;1.23;;;;;;;-3.28;92.82;94196.25;2092766;28;20435;-80
2021/03/28 04:20:17;;;;;;;2.72;1.20;;;;;;;-3.21;93.04;94189.50;2104191;28;20727;-79
2021/03/28 04:22:06;;;;;;;2.72;0.95;;;;;;;-3.38;91.86;94198.06;2108594;28;20414;-82
2021/03/28 04:23:27;;;;;;;4.88;1.75;;;;;;;-3.42;92.52;94194.50;2090900;28;20496;-79
2021/03/28 04:24:39;;;;;;;;;;;;;;;-3.54;91.90;94196.91;2095743;28;20823;-79
2021/03/28 04:25:44;;;;;;;3.03;0.98;;;;;;;-3.45;92.46;94207.41;2090764;28;19916;-80
2021/03/28 04:27:02;;;;;;;1.70;1.08;;;;;;;-3.51;93.07;94208.59;2097966;28;20481;-79
2021/03/28 04:28:14;;;;;;;4.53;1.40;;;;;;;-3.41;93.26;94200.50;2102952;28;20439;-80
2021/03/28 04:29:17;;;;;;;3.08;1.00;;;;;;;-3.38;93.47;94205.09;2114793;28;20441;-79
2021/03/28 04:30:55;;;;;;;1.85;1.10;;;;;;;-3.38;93.25;94203.28;2114899;28;20445;-80
2021/03/28 04:32:04;;;;;;;3.85;1.10;;;;;;;-3.35;93.07;94202.66;2081122;28;20483;-80
2021/03/28 04:33:20;;;;;;;2.42;0.95;;;;;;;-3.38;92.99;94208.53;2086232;28;20451;-80
2021/03/28 04:34:31;;;;;;;5.38;1.60;;;;;;;-3.42;91.78;94204.19;2106339;28;20434;-80
2021/03/28 04:35:56;;;;;;;3.50;1.52;;;;;;;-3.37;92.02;94204.06;2099400;28;20439;-80
2021/03/28 04:36:59;;;;;;;3.30;1.05;;;;;;;-3.37;92.68;94202.22;2096375;28;20413;-79
2021/03/28 04:38:28;;;;;;;6.25;1.63;;;;;;;-3.47;91.71;94201.69;2096941;28;21071;-79
2021/03/28 04:39:57;;;;;;;6.00;1.13;;;;;;;-3.51;92.05;94203.34;2104808;28;20927;-80
2021/03/28 04:41:32;;;;;;;4.35;1.02;;;;;;;-3.64;91.86;94197.16;2110048;28;20536;-80
2021/03/28 04:43:03;;;;;;;4.25;1.17;;;;;;;-3.65;91.72;94196.38;2106337;28;20438;-79
2021/03/28 04:44:25;;;;;;;4.47;1.30;;;;;;;-3.63;91.85;94203.94;2106130;28;20429;-80
2021/03/28 04:45:53;;;;;;;3.30;1.20;;;;;;;-3.58;92.35;94206.41;2095975;28;20446;-80
2021/03/28 04:47:12;;;;;;;2.05;1.15;;;;;;;-3.54;92.35;94207.34;2088708;28;20435;-80
2021/03/28 04:48:18;;;;;;;2.72;0.90;;;;;;;-3.58;92.24;94211.63;2106299;28;20457;-80
2021/03/28 04:49:30;;;;;;;5.55;1.55;;;;;;;-3.65;93.49;94200.81;2098415;28;20438;-80
2021/03/28 04:51:00;;;;;;;4.13;1.33;;;;;;;-3.62;92.63;94216.69;2111997;28;20445;-79
2021/03/28 04:52:19;;;;;;;;;;;;;;;-3.57;93.01;94221.00;2094091;28;20435;-80
2021/03/28 04:53:38;;;;;;;3.45;1.10;;;;;;;-3.61;93.21;94213.00;2091883;28;19913;-79
2021/03/28 04:54:54;;;;;;;5.53;1.63;;;;;;;-3.66;92.55;94215.75;2112000;28;20437;-80
2021/03/28 04:55:57;;;;;;;5.15;1.17;;;;;;;-3.62;91.97;94221.13;2114445;28;20980;-79
2021/03/28 04:57:21;;;;;;;5.68;1.30;;;;;;;-3.70;91.52;94212.19;2098153;28;20446;-80
2021/03/28 04:58:49;;;;;;;3.15;1.10;;;;;;;-3.63;91.65;94214.38;2101004;28;20434;-79
2021/03/28 05:00:13;;;;;;;2.95;1.08;;;;;;;-3.68;92.66;94215.28;2096957;28;21245;-80
2021/03/28 05:01:35;;;;;;;1.60;1.08;;;;;;;-3.66;92.88;94214.97;2100918;28;20928;-79
2021/03/28 05:03:12;;;;;;;2.08;1.20;;;;;;;-3.78;94.19;94209.50;2095005;28;20904;-79
2021/03/28 05:04:50;;;;;;;2.88;0.93;;;;;;;-3.76;93.52;94210.75;2089356;28;20491;-80
2021/03/28 05:06:23;;;;;;;2.92;1.02;;;;;;;-3.77;94.35;94208.47;2091164;28;20498;-80
2021/03/28 05:07:48;;;;;;;2.65;1.20;;;;;;;-3.73;93.95;94199.72;2085492;28;20451;-80
2021/03/28 05:09:20;;;;;;;4.07;1.33;;;;;;;-3.66;94.23;94207.13;2089047;28;20973;-80
2021/03/28 05:10:51;;;;;;;2.05;0.75;;;;;;;-3.67;95.12;94205.59;2088753;28;20518;-80
2021/03/28 05:12:10;;;;;;;4.03;1.85;;;;;;;-3.68;95.61;94217.13;2103984;28;20441;-80
2021/03/28 05:13:29;;;;;;;2.65;0.95;;;;;;;-3.63;95.49;94220.38;2089457;28;20475;-80
2021/03/28 05:14:51;;;;;;;1.48;1.17;;;;;;;-3.61;94.62;94220.84;2084596;28;20483;-80
2021/03/28 05:16:40;;;;;;;2.50;1.33;;;;;;;-3.64;93.82;94225.91;2078492;28;20800;-80
2021/03/28 05:18:02;;;;;;;3.85;1.00;;;;;;;-3.69;94.59;94234.59;2047029;28;20510;-80
2021/03/28 05:19:19;;;;;;;5.10;1.55;;;;;;;-3.75;94.56;94227.22;2092155;28;20115;-80
2021/03/28 05:20:34;;;;;;;5.43;1.38;;;;;;;-3.74;95.07;94226.13;2097689;28;20441;-80
2021/03/28 05:22:11;;;;;;;3.28;0.85;;;;;;;-3.78;94.52;94225.94;2091300;28;20463;-79
2021/03/28 05:23:18;;;;;;;4.47;1.30;;;;;;;-3.64;93.81;94218.06;2106466;28;20421;-81
2021/03/28 05:25:15;;;;;;;6.22;2.25;;;;;;;-3.63;92.15;94222.22;2104842;28;20887;-80
2021/03/28 05:26:37;;;;;;;3.17;1.60;;;;;;;-3.76;92.68;94223.06;2054530;28;20435;-80
2021/03/28 05:27:55;;;;;;;4.32;1.25;;;;;;;-3.72;92.73;94218.78;2051221;28;20525;-80
2021/03/28 05:29:23;;;;;;;3.78;1.38;;;;;;;-3.72;93.55;94221.41;2056406;28;20458;-79
2021/03/28 05:30:51;;;;;;;3.00;1.40;;;;;;;-3.73;93.55;94222.44;2060092;28;21047;-80
2021/03/28 05:31:54;;;;;;;2.25;1.30;;;;;;;-3.69;94.23;94220.78;2082190;28;20874;-80
2021/03/28 05:32:54;;;;;;;4.18;1.00;;;;;;;-3.70;94.58;94220.00;2097520;28;20982;-80
2021/03/28 05:34:22;;;;;;;3.30;1.30;;;;;;;-3.72;95.30;94218.78;2089286;28;20439;-80
2021/03/28 05:35:56;;;;;;;3.97;1.52;;;;;;;-3.66;96.14;94220.19;2088598;28;20024;-80
2021/03/28 05:37:27;;;;;;;5.20;1.00;;;;;;;-3.54;95.35;94212.59;2085443;28;21082;-80
2021/03/28 05:38:42;;;;;;;3.95;1.10;;;;;;;-3.57;95.53;94207.94;2088901;28;20442;-80
2021/03/28 05:40:13;;;;;;;6.05;1.35;;;;;;;-3.56;96.18;94217.31;2091041;28;20474;-80
2021/03/28 05:41:38;;;;;;;3.22;1.17;;;;;;;-3.53;95.94;94219.34;2093303;28;20431;-80
2021/03/28 05:42:48;;;;;;;2.45;1.10;;;;;;;-3.48;96.06;94219.22;2084159;28;20435;-80
2021/03/28 05:43:48;;;;;;;;;;;;;;;-3.47;96.04;94217.38;2075816;28;20552;-80
2021/03/28 05:45:13;;;;;;;2.53;1.30;;;;;;;-3.48;95.84;94221.06;2077838;28;19913;-80
2021/03/28 05:46:35;;;;;;;1.60;1.00;;;;;;;-3.48;94.95;94221.06;2079359;28;20476;-80
2021/03/28 05:47:35;;;;;;;3.05;1.20;;;;;;;-3.43;94.45;94223.53;2078326;28;20515;-80
2021/03/28 05:48:57;;;;;;;4.15;1.10;;;;;;;-3.48;93.29;94231.50;2076065;28;20444;-80
2021/03/28 05:50:10;;;;;;;3.50;1.30;;;;;;;-3.44;93.54;94222.78;2078451;28;20036;-80
2021/03/28 05:51:41;;;;;;;2.45;1.25;;;;;;;-3.43;93.29;94228.78;2076133;28;20539;-80
2021/03/28 05:52:41;;;;;;;2.75;1.10;;;;;;;-3.41;93.42;94227.41;2080506;28;20527;-80
2021/03/28 05:54:00;;;;;;;3.47;1.30;;;;;;;-3.46;93.96;94224.16;2072809;28;20384;-80
2021/03/28 05:55:38;;;;;;;6.00;1.27;;;;;;;-3.45;94.15;94228.31;2085554;28;20222;-80
2021/03/28 05:56:46;;;;;;;2.67;1.20;;;;;;;-3.49;93.84;94233.34;2085797;28;20432;-80
2021/03/28 05:58:13;;;;;;;3.45;1.30;;;;;;;-3.47;93.84;94233.81;2086654;28;20463;-80
2021/03/28 05:59:16;;;;;;;4.30;1.30;;;;;;;-3.48;93.85;94231.50;2097604;28;20514;-80
2021/03/28 06:00:54;;;;;;;4.53;1.30;;;;;;;-3.40;93.50;94233.41;2097454;28;20451;-80
2021/03/28 06:02:22;;;;;;;5.72;1.35;;;;;;;-3.37;94.80;94230.19;2090638;28;20465;-79
2021/03/28 06:03:34;;;;;;;4.20;1.30;;;;;;;-3.37;94.83;94238.03;2089148;28;20443;-79
2021/03/28 06:05:05;;;;;;;4.95;1.45;;;;;;;-3.31;95.04;94242.06;2098575;28;20998;-80
2021/03/28 06:06:24;;;;;;;2.33;1.02;;;;;;;-3.27;95.57;94244.84;2101506;28;20496;-80
2021/03/28 06:07:56;;;;;;;1.58;1.30;;;;;;;-3.19;95.97;94255.34;2108527;28;20425;-80
2021/03/28 06:09:15;;;;;;;3.85;1.10;;;;;;;-3.21;95.79;94252.25;2105070;28;20457;-80
2021/03/28 06:10:49;;;;;;;3.95;1.13;;;;;;;-3.15;95.45;94250.28;2099741;28;20453;-80
2021/03/28 06:12:26;;;;;;;1.33;1.02;;;;;;;-3.13;95.72;94250.75;2098299;28;20442;-80